Time;durP1;ratioP1;P1;durP2;ratioP2;P2;SDS_P1;SDS_P2;PMS_P1;PMS_P2;Temp;Humidity;BMP_temperature;BMP_pressure;BME280_temperature;BME280_humidity;BME280_pressure;Samples;Min_cycle;Max_cycle;Signal;HPM_P1;HPM_P2
2022/02/25 00:02:02;;;;;;;2.00;1.67;;;22.30;54.50;;;;;;4920865;29;20412;-81
2022/02/25 00:04:54;;;;;;;1.60;1.50;;;22.40;54.60;;;;;;4920594;29;20497;-80
2022/02/25 00:07:21;;;;;;;1.20;0.83;;;22.30;54.60;;;;;;4920789;29;20457;-81
2022/02/25 00:09:50;;;;;;;2.07;0.90;;;22.40;54.60;;;;;;4918805;29;20540;-81
2022/02/25 00:12:42;;;;;;;1.70;1.23;;;22.40;54.60;;;;;;5001882;28;20523;-80
2022/02/25 00:15:13;;;;;;;1.20;0.90;;;22.40;54.60;;;;;;5036249;28;20399;-81
2022/02/25 00:18:06;;;;;;;1.20;0.90;;;22.40;54.50;;;;;;5009370;28;20485;-81
2022/02/25 00:21:03;;;;;;;1.23;0.83;;;22.40;54.50;;;;;;5005382;28;20407;-81
2022/02/25 00:23:32;;;;;;;1.10;0.90;;;22.40;54.60;;;;;;4998920;28;20419;-81
2022/02/25 00:26:08;;;;;;;1.40;1.10;;;22.40;54.60;;;;;;5019129;28;20399;-81
2022/02/25 00:29:01;;;;;;;0.97;0.83;;;22.40;54.50;;;;;;5038003;28;20413;-81
2022/02/25 00:31:36;;;;;;;1.20;1.00;;;22.40;54.50;;;;;;5079831;28;20417;-81
2022/02/25 00:38:37;;;;;;;1.70;1.10;;;22.40;54.60;;;;;;5097271;28;20451;-81
2022/02/25 00:41:11;;;;;;;1.00;0.80;;;22.30;54.50;;;;;;5096153;28;20520;-81
2022/02/25 00:47:08;;;;;;;1.17;0.90;;;22.30;54.50;;;;;;5096996;28;20419;-80
2022/02/25 00:49:43;;;;;;;1.10;0.77;;;22.30;54.60;;;;;;5096259;28;20412;-80
2022/02/25 00:52:38;;;;;;;1.20;0.90;;;22.30;54.60;;;;;;5055281;28;20474;-80
2022/02/25 00:55:47;;;;;;;1.73;1.10;;;22.30;54.50;;;;;;5081528;28;20918;-81
2022/02/25 00:58:33;;;;;;;1.40;0.90;;;22.30;54.60;;;;;;5096641;28;20468;-81
2022/02/25 01:01:12;;;;;;;1.40;1.00;;;22.30;54.60;;;;;;5082332;28;20428;-81
2022/02/25 01:03:50;;;;;;;2.70;1.13;;;22.30;54.50;;;;;;5117014;28;20419;-80
2022/02/25 01:06:26;;;;;;;1.10;0.90;;;22.30;54.50;;;;;;5090658;28;20404;-81
2022/02/25 01:09:08;;;;;;;1.20;1.00;;;22.30;54.50;;;;;;5117540;28;20368;-80
2022/02/25 01:11:38;;;;;;;1.57;1.00;;;22.30;54.50;;;;;;5082439;28;20428;-81
2022/02/25 01:14:07;;;;;;;1.33;0.90;;;22.30;54.50;;;;;;5110418;28;20423;-81
2022/02/25 01:17:02;;;;;;;1.70;1.10;;;22.30;55.10;;;;;;5115967;28;20459;-81
2022/02/25 01:19:31;;;;;;;1.37;0.90;;;22.30;54.50;;;;;;5116294;28;20399;-81
2022/02/25 01:29:29;;;;;;;1.40;1.00;;;22.30;54.50;;;;;;5055262;28;20389;-80
2022/02/25 01:32:15;;;;;;;1.10;0.90;;;22.20;54.40;;;;;;5049293;28;20415;-80
2022/02/25 01:34:52;;;;;;;1.50;1.10;;;22.20;54.50;;;;;;5003545;28;20415;-80
2022/02/25 01:37:51;;;;;;;1.30;0.87;;;22.20;54.50;;;;;;5038923;28;20463;-80
2022/02/25 01:47:51;;;;;;;1.13;0.83;;;22.20;54.60;;;;;;5012130;28;20551;-81
2022/02/25 01:50:20;;;;;;;1.40;1.00;;;22.20;54.60;;;;;;5005852;28;20407;-80
2022/02/25 01:53:10;;;;;;;2.03;0.90;;;22.20;54.70;;;;;;5015546;28;20954;-80
2022/02/25 01:55:51;;;;;;;1.63;1.47;;;22.20;54.60;;;;;;5018758;28;20427;-80
2022/02/25 01:58:28;;;;;;;1.10;0.90;;;22.20;54.60;;;;;;5004313;28;20451;-79
2022/02/25 02:00:59;;;;;;;3.00;1.20;;;22.20;54.60;;;;;;5013115;28;20421;-79
2022/02/25 02:03:28;;;;;;;1.37;1.00;;;22.20;54.60;;;;;;5016138;28;20415;-79
2022/02/25 02:05:55;;;;;;;1.20;0.80;;;22.20;54.50;;;;;;5016925;28;20452;-79
2022/02/25 02:08:25;;;;;;;1.07;0.80;;;22.20;54.50;;;;;;5000513;28;20409;-79
2022/02/25 02:10:52;;;;;;;1.03;0.83;;;22.20;54.50;;;;;;5016582;28;20478;-79
2022/02/25 02:13:21;;;;;;;1.53;1.10;;;22.20;54.50;;;;;;5016998;28;20409;-79
2022/02/25 02:15:55;;;;;;;1.43;1.00;;;22.20;54.50;;;;;;4997501;28;20418;-79
2022/02/25 02:18:24;;;;;;;1.20;0.90;;;22.20;54.50;;;;;;5026135;28;20467;-79
2022/02/25 02:20:52;;;;;;;1.23;0.80;;;22.20;54.50;;;;;;5031401;28;20421;-79
2022/02/25 02:23:19;;;;;;;1.10;0.90;;;22.20;54.50;;;;;;5061148;28;20433;-79
2022/02/25 02:25:46;;;;;;;1.60;1.20;;;22.20;54.50;;;;;;5079794;28;20476;-79
2022/02/25 02:28:18;;;;;;;1.33;1.00;;;22.20;54.50;;;;;;5097102;28;20500;-79
2022/02/25 02:30:47;;;;;;;2.20;0.90;;;22.20;54.40;;;;;;5096659;28;20421;-80
2022/02/25 02:33:14;;;;;;;1.87;0.90;;;22.20;54.40;;;;;;5062710;28;20431;-80
2022/02/25 02:36:11;;;;;;;1.30;0.80;;;22.20;54.50;;;;;;5080605;28;20429;-80
2022/02/25 02:38:42;;;;;;;1.17;0.90;;;22.20;54.50;;;;;;5099076;28;20436;-80
2022/02/25 02:41:22;;;;;;;1.23;0.70;;;22.20;54.50;;;;;;5096751;28;20436;-80
2022/02/25 02:43:59;;;;;;;1.30;0.90;;;22.20;54.50;;;;;;5060819;28;20421;-79
2022/02/25 02:46:27;;;;;;;1.33;0.90;;;22.20;54.50;;;;;;5080549;28;20393;-79
2022/02/25 02:48:56;;;;;;;1.40;1.13;;;22.20;54.50;;;;;;5062641;28;20428;-79
2022/02/25 02:58:22;;;;;;;1.20;1.03;;;22.10;54.40;;;;;;5097154;28;20504;-79
2022/02/25 03:00:51;;;;;;;1.20;0.87;;;22.10;54.50;;;;;;5062921;28;20492;-78
2022/02/25 03:03:20;;;;;;;1.87;0.97;;;22.10;54.50;;;;;;5062056;28;20428;-79
2022/02/25 03:05:48;;;;;;;0.90;0.80;;;22.10;54.50;;;;;;5079443;28;20421;-79
2022/02/25 03:08:17;;;;;;;1.03;0.93;;;22.10;54.50;;;;;;5096993;28;20404;-79
2022/02/25 03:10:44;;;;;;;1.33;0.87;;;22.10;54.50;;;;;;5079962;28;20420;-79
2022/02/25 03:13:14;;;;;;;1.13;0.80;;;22.10;54.50;;;;;;5061933;28;20436;-79
2022/02/25 03:15:44;;;;;;;1.30;0.83;;;22.10;54.50;;;;;;5079377;28;20413;-79
2022/02/25 03:18:12;;;;;;;0.93;0.60;;;22.10;54.50;;;;;;5096455;28;20424;-79
2022/02/25 03:20:38;;;;;;;1.70;0.80;;;22.10;54.50;;;;;;5062796;28;20428;-79
2022/02/25 03:23:04;;;;;;;1.17;0.80;;;22.10;54.50;;;;;;5095688;28;20439;-79
2022/02/25 03:25:31;;;;;;;1.60;0.97;;;22.10;54.50;;;;;;5096627;28;20178;-79
2022/02/25 03:27:58;;;;;;;1.20;0.90;;;22.10;54.50;;;;;;5096241;28;20424;-79
2022/02/25 03:30:26;;;;;;;1.30;0.90;;;22.10;54.40;;;;;;5096020;28;20417;-79
2022/02/25 03:32:56;;;;;;;1.10;0.80;;;22.10;54.40;;;;;;5094769;28;20420;-79
2022/02/25 03:35:22;;;;;;;3.70;0.93;;;22.10;54.50;;;;;;5095241;28;20488;-79
2022/02/25 03:37:49;;;;;;;1.57;0.80;;;22.10;54.50;;;;;;5061861;28;20522;-79
2022/02/25 03:40:27;;;;;;;1.03;0.70;;;22.10;54.50;;;;;;5092661;28;20428;-79
2022/02/25 03:42:53;;;;;;;2.07;0.90;;;22.10;54.50;;;;;;5077616;28;20822;-80
2022/02/25 03:45:43;;;;;;;1.20;0.80;;;22.10;54.50;;;;;;5096396;28;20434;-79
2022/02/25 03:48:17;;;;;;;1.13;0.90;;;22.10;54.50;;;;;;5094416;28;20420;-79
2022/02/25 03:54:10;;;;;;;1.00;0.80;;;22.10;54.50;;;;;;5095726;28;20376;-79
2022/02/25 03:56:40;;;;;;;1.30;0.87;;;22.00;54.40;;;;;;5095177;28;20482;-79
2022/02/25 03:59:07;;;;;;;1.37;0.87;;;22.00;54.50;;;;;;5095297;28;20389;-79
2022/02/25 04:01:36;;;;;;;1.20;0.90;;;22.10;54.60;;;;;;5060305;28;20409;-79
2022/02/25 04:04:07;;;;;;;2.30;1.20;;;22.00;54.50;;;;;;5078187;28;20447;-79
2022/02/25 04:06:34;;;;;;;1.23;0.90;;;22.10;54.50;;;;;;5078002;28;20459;-79
2022/02/25 04:09:06;;;;;;;1.43;1.00;;;22.10;54.50;;;;;;5078016;28;20397;-79
2022/02/25 04:11:32;;;;;;;1.30;0.70;;;22.00;54.40;;;;;;5078173;28;20413;-79
2022/02/25 04:14:06;;;;;;;1.20;0.80;;;22.00;54.40;;;;;;5077426;28;20392;-79
2022/02/25 04:16:32;;;;;;;1.53;0.90;;;22.00;54.40;;;;;;5078310;28;20456;-79
2022/02/25 04:19:04;;;;;;;1.63;1.00;;;22.10;54.50;;;;;;5095664;28;20415;-79
2022/02/25 04:21:41;;;;;;;1.10;0.70;;;22.00;54.40;;;;;;5062022;28;20401;-79
2022/02/25 04:24:08;;;;;;;1.50;0.80;;;22.00;54.40;;;;;;5078479;28;20434;-79
2022/02/25 04:26:36;;;;;;;1.20;0.90;;;22.00;54.40;;;;;;5094638;28;20413;-79
2022/02/25 04:29:04;;;;;;;1.30;0.80;;;22.00;54.40;;;;;;5090179;28;20439;-79
2022/02/25 04:31:33;;;;;;;1.87;1.00;;;22.00;54.40;;;;;;5057850;28;20475;-79
2022/02/25 04:34:00;;;;;;;1.20;0.80;;;22.00;54.40;;;;;;5094908;28;20420;-79
2022/02/25 04:36:29;;;;;;;0.90;0.77;;;22.00;54.40;;;;;;5060811;28;20512;-79
2022/02/25 04:38:55;;;;;;;0.93;0.77;;;22.00;54.40;;;;;;5078111;28;20413;-79
2022/02/25 04:41:22;;;;;;;1.00;0.70;;;22.00;54.40;;;;;;5080959;28;20422;-79
2022/02/25 04:43:51;;;;;;;1.20;0.83;;;22.00;55.00;;;;;;5081999;28;20428;-79
2022/02/25 04:46:20;;;;;;;0.80;0.60;;;22.00;54.40;;;;;;5115964;28;20403;-79
2022/02/25 04:48:49;;;;;;;1.10;0.83;;;22.00;54.40;;;;;;5082100;28;20419;-79
2022/02/25 04:51:17;;;;;;;1.00;0.83;;;22.00;54.40;;;;;;5098372;28;20419;-79
2022/02/25 04:53:46;;;;;;;0.90;0.70;;;22.00;54.40;;;;;;5100549;28;20482;-79
2022/02/25 04:56:16;;;;;;;1.50;0.80;;;22.00;54.40;;;;;;5116374;28;20436;-79
2022/02/25 04:58:43;;;;;;;2.00;0.90;;;22.00;54.40;;;;;;5115006;28;20399;-79
2022/02/25 05:01:10;;;;;;;2.30;0.97;;;22.00;54.40;;;;;;5108945;28;20443;-79
2022/02/25 05:03:37;;;;;;;1.10;0.80;;;22.00;54.40;;;;;;5115481;28;20859;-79
2022/02/25 05:06:05;;;;;;;1.80;1.00;;;22.00;54.40;;;;;;5115776;28;20408;-79
2022/02/25 05:08:32;;;;;;;1.00;0.73;;;22.00;54.40;;;;;;5114915;28;20420;-79
2022/02/25 05:11:01;;;;;;;1.70;1.00;;;22.00;54.40;;;;;;5087807;28;20438;-79
2022/02/25 05:13:27;;;;;;;1.10;0.73;;;22.00;54.40;;;;;;5101600;28;20449;-79
2022/02/25 05:21:32;;;;;;;1.20;0.87;;;22.00;54.40;;;;;;5119817;28;20407;-79
2022/02/25 05:24:00;;;;;;;1.10;0.80;;;21.90;54.40;;;;;;5102801;28;20400;-79
2022/02/25 05:26:36;;;;;;;1.10;0.77;;;21.90;54.40;;;;;;5085328;28;20499;-79
2022/02/25 05:29:03;;;;;;;0.97;0.80;;;22.00;54.50;;;;;;5102055;28;20439;-79
2022/02/25 05:31:30;;;;;;;1.40;1.00;;;21.90;54.40;;;;;;5101300;28;20416;-79
2022/02/25 05:34:07;;;;;;;0.80;0.60;;;21.90;54.40;;;;;;5101220;28;20420;-80
2022/02/25 05:36:34;;;;;;;1.10;0.80;;;21.90;54.40;;;;;;5083945;28;20462;-79
2022/02/25 05:39:01;;;;;;;1.30;0.90;;;21.90;54.40;;;;;;5102486;28;20414;-83
2022/02/25 05:41:31;;;;;;;2.10;0.90;;;21.90;54.40;;;;;;5101212;28;20431;-79
2022/02/25 05:44:01;;;;;;;1.40;0.80;;;21.90;54.40;;;;;;5085500;28;20411;-79
2022/02/25 05:46:30;;;;;;;1.47;1.00;;;21.90;54.30;;;;;;5119528;28;20400;-79
2022/02/25 05:49:02;;;;;;;1.00;0.77;;;21.90;54.30;;;;;;5101362;28;20411;-79
2022/02/25 05:51:38;;;;;;;1.17;0.77;;;21.90;54.40;;;;;;5081942;28;20400;-80
2022/02/25 05:54:08;;;;;;;1.13;0.77;;;21.90;54.40;;;;;;5094035;28;20404;-80
2022/02/25 05:56:47;;;;;;;1.03;0.80;;;21.90;54.40;;;;;;5100268;28;20463;-80
2022/02/25 05:59:40;;;;;;;0.80;0.60;;;21.90;54.40;;;;;;5058671;28;20546;-80
2022/02/25 06:08:09;;;;;;;1.30;0.80;;;21.90;54.50;;;;;;5037819;28;20419;-80
2022/02/25 06:10:37;;;;;;;0.90;0.67;;;21.90;54.50;;;;;;5015964;28;20415;-79
2022/02/25 06:13:07;;;;;;;1.23;0.80;;;21.90;54.50;;;;;;4985479;28;20439;-79
2022/02/25 06:15:33;;;;;;;1.20;0.83;;;21.90;54.50;;;;;;5026105;28;20430;-82
2022/02/25 06:18:00;;;;;;;1.20;0.80;;;21.90;54.50;;;;;;5004592;28;20451;-79
2022/02/25 06:20:28;;;;;;;1.00;0.70;;;21.90;54.50;;;;;;5036945;28;20480;-79
2022/02/25 06:23:09;;;;;;;1.00;0.80;;;21.90;54.40;;;;;;5017139;28;20424;-79
2022/02/25 06:25:36;;;;;;;1.20;1.10;;;21.90;54.40;;;;;;5029869;28;20413;-79
2022/02/25 06:28:03;;;;;;;0.97;0.87;;;21.90;54.40;;;;;;5031198;28;20496;-79
2022/02/25 06:30:36;;;;;;;1.97;0.90;;;21.90;54.40;;;;;;5011812;28;20420;-79
2022/02/25 06:33:08;;;;;;;1.13;0.80;;;21.90;54.40;;;;;;5036933;28;20518;-79
2022/02/25 06:35:34;;;;;;;1.20;0.70;;;21.90;54.40;;;;;;5032068;28;20414;-80
2022/02/25 06:38:11;;;;;;;1.20;0.90;;;21.90;54.40;;;;;;5076408;28;20476;-80
2022/02/25 06:40:39;;;;;;;0.80;0.60;;;21.90;54.40;;;;;;5088927;28;20979;-79
2022/02/25 06:43:07;;;;;;;1.60;0.87;;;21.90;54.40;;;;;;5097112;28;20431;-79
2022/02/25 06:45:41;;;;;;;1.50;0.80;;;21.90;54.30;;;;;;5079087;28;20493;-79
2022/02/25 06:48:12;;;;;;;0.83;0.67;;;21.90;54.30;;;;;;5059791;28;20418;-79
2022/02/25 06:50:40;;;;;;;1.83;0.80;;;21.90;54.30;;;;;;5051082;28;20414;-79
2022/02/25 06:53:11;;;;;;;1.10;0.70;;;21.90;54.90;;;;;;5060512;28;20938;-79
2022/02/25 06:55:38;;;;;;;0.90;0.70;;;21.90;54.30;;;;;;5076600;28;20417;-79
2022/02/25 06:58:11;;;;;;;1.67;0.80;;;21.90;54.30;;;;;;5043180;28;20445;-79
2022/02/25 07:00:49;;;;;;;0.80;0.60;;;21.90;54.30;;;;;;5063285;28;20429;-79
2022/02/25 07:03:38;;;;;;;1.13;0.73;;;21.90;54.30;;;;;;5034861;28;20418;-79
2022/02/25 07:06:05;;;;;;;2.60;0.70;;;21.90;54.30;;;;;;5054940;28;20476;-79
2022/02/25 07:08:31;;;;;;;1.00;0.80;;;21.90;54.30;;;;;;5059172;28;20421;-79
2022/02/25 07:10:59;;;;;;;2.87;1.10;;;21.90;54.30;;;;;;5067393;28;20414;-79
2022/02/25 07:13:27;;;;;;;1.73;1.00;;;21.90;54.20;;;;;;5094874;28;20452;-79
2022/02/25 07:15:58;;;;;;;1.10;0.80;;;21.90;54.20;;;;;;5112024;28;20423;-79
2022/02/25 07:18:32;;;;;;;1.50;0.80;;;21.90;54.20;;;;;;5117899;28;20455;-79
2022/02/25 07:24:44;;;;;;;1.77;1.20;;;21.90;54.20;;;;;;5112456;28;20430;-79
2022/02/25 07:27:13;;;;;;;1.53;0.80;;;21.90;54.30;;;;;;5116607;28;20920;-79
2022/02/25 07:29:40;;;;;;;1.70;0.73;;;21.90;54.30;;;;;;5090644;28;20483;-79
2022/02/25 07:32:26;;;;;;;1.40;1.20;;;21.90;54.30;;;;;;5096304;28;20425;-79
2022/02/25 07:35:07;;;;;;;1.37;0.83;;;21.90;54.30;;;;;;5079945;28;20456;-79
2022/02/25 07:38:19;;;;;;;1.40;0.80;;;21.90;54.40;;;;;;5096685;28;20477;-79
2022/02/25 07:40:45;;;;;;;1.00;0.70;;;21.90;54.40;;;;;;5100330;28;20519;-79
2022/02/25 07:43:34;;;;;;;3.13;0.80;;;21.90;54.40;;;;;;5116571;28;20423;-79
2022/02/25 07:46:11;;;;;;;1.33;0.80;;;21.90;54.40;;;;;;5099274;28;20422;-79
2022/02/25 07:48:41;;;;;;;1.50;0.90;;;21.90;54.40;;;;;;5098289;28;20441;-79
2022/02/25 07:51:45;;;;;;;;;;;;;;;;;;;;;
2022/02/25 07:54:25;;;;;;;1.50;0.80;;;22.00;54.50;;;;;;5079709;28;20444;-80
2022/02/25 07:56:52;;;;;;;1.37;0.93;;;21.90;54.40;;;;;;5105780;28;20486;-79
2022/02/25 07:59:21;;;;;;;2.13;1.10;;;21.90;54.40;;;;;;5112468;28;20501;-79
2022/02/25 08:01:47;;;;;;;1.30;0.83;;;22.00;55.00;;;;;;5085851;28;20404;-79
2022/02/25 08:04:16;;;;;;;1.70;1.47;;;22.00;54.40;;;;;;5099010;28;20439;-79
2022/02/25 08:07:19;;;;;;;1.20;0.90;;;22.00;54.40;;;;;;5089620;28;20417;-79
2022/02/25 08:09:53;;;;;;;1.20;0.80;;;22.00;54.40;;;;;;5078866;28;20421;-79
2022/02/25 08:12:29;;;;;;;1.57;0.77;;;22.00;54.40;;;;;;5081508;28;20405;-79
2022/02/25 08:15:01;;;;;;;1.13;0.83;;;22.00;54.40;;;;;;5096553;28;20419;-79
2022/02/25 08:17:30;;;;;;;1.60;1.10;;;22.00;54.40;;;;;;5098974;28;20822;-79
2022/02/25 08:20:02;;;;;;;1.00;0.70;;;22.00;54.30;;;;;;5105942;28;20444;-80
2022/02/25 08:22:36;;;;;;;1.10;0.80;;;22.00;54.30;;;;;;5099204;28;20392;-79
2022/02/25 08:25:16;;;;;;;0.93;0.80;;;22.00;54.30;;;;;;5116420;28;20411;-79
2022/02/25 08:27:57;;;;;;;1.83;1.00;;;22.00;54.30;;;;;;5063044;28;20416;-79
2022/02/25 08:30:31;;;;;;;0.90;0.70;;;22.00;54.30;;;;;;5090495;28;20407;-79
2022/02/25 08:33:06;;;;;;;1.10;0.80;;;22.00;54.30;;;;;;5098352;28;20475;-79
2022/02/25 08:35:43;;;;;;;1.50;0.90;;;22.00;54.20;;;;;;5098775;28;20482;-80
2022/02/25 08:38:10;;;;;;;0.80;0.70;;;22.00;54.20;;;;;;5099208;28;20972;-79
2022/02/25 08:47:28;;;;;;;2.00;0.90;;;22.00;54.20;;;;;;5116319;28;20380;-80
2022/02/25 08:50:05;;;;;;;2.03;0.90;;;22.00;54.30;;;;;;5098946;28;20403;-79
2022/02/25 08:52:32;;;;;;;0.80;0.70;;;22.00;54.30;;;;;;5098676;28;20435;-79
2022/02/25 08:55:16;;;;;;;0.90;0.70;;;22.00;54.30;;;;;;5105563;28;20431;-79
2022/02/25 08:57:57;;;;;;;2.70;0.90;;;22.00;54.30;;;;;;5099053;28;20479;-79
2022/02/25 09:00:41;;;;;;;1.20;0.70;;;22.00;54.30;;;;;;5082768;28;20412;-80
2022/02/25 09:03:42;;;;;;;;;;;;;;;;;;;;;
2022/02/25 09:06:09;;;;;;;6.93;1.10;;;22.00;54.30;;;;;;5074891;28;20421;-80
2022/02/25 09:08:46;;;;;;;1.00;0.70;;;22.00;54.30;;;;;;5058451;28;20410;-80
2022/02/25 09:11:13;;;;;;;1.00;0.70;;;22.00;54.30;;;;;;5075802;28;20385;-80
2022/02/25 09:13:42;;;;;;;1.73;0.70;;;22.00;54.30;;;;;;5058278;28;20422;-80
2022/02/25 09:16:11;;;;;;;1.30;0.70;;;22.00;54.30;;;;;;5042868;28;20475;-80
2022/02/25 09:22:28;;;;;;;1.63;0.70;;;22.00;54.30;;;;;;5075317;28;20411;-80
2022/02/25 09:25:13;;;;;;;0.90;0.67;;;22.00;54.30;;;;;;5058753;28;20425;-80
2022/02/25 09:27:50;;;;;;;1.10;0.70;;;22.00;54.30;;;;;;5075457;28;20405;-82
2022/02/25 09:33:53;;;;;;;1.37;0.70;;;22.00;54.30;;;;;;5035777;28;20557;-80
2022/02/25 09:36:26;;;;;;;0.97;0.70;;;22.00;54.30;;;;;;5031248;28;20484;-80
2022/02/25 09:39:15;;;;;;;1.10;0.70;;;22.00;54.30;;;;;;5031741;28;20395;-80
2022/02/25 09:49:16;;;;;;;0.90;0.60;;;22.00;54.30;;;;;;5035434;28;20398;-80
2022/02/25 09:55:27;;;;;;;1.00;0.70;;;22.00;54.30;;;;;;5035240;28;20818;-79
2022/02/25 09:57:59;;;;;;;2.17;0.77;;;22.00;54.30;;;;;;5003647;28;20458;-80
2022/02/25 10:00:40;;;;;;;1.73;0.80;;;22.00;54.30;;;;;;5038037;28;20443;-80
2022/02/25 10:03:29;;;;;;;0.93;0.77;;;22.00;54.30;;;;;;5014572;28;20409;-80
2022/02/25 10:13:05;;;;;;;0.90;0.70;;;22.00;54.30;;;;;;4921808;29;20443;-79
2022/02/25 10:15:35;;;;;;;2.07;0.90;;;22.00;54.30;;;;;;4921152;29;20452;-79
2022/02/25 10:21:13;;;;;;;1.37;0.63;;;22.00;54.30;;;;;;4940333;29;20419;-79
2022/02/25 10:23:50;;;;;;;0.97;0.80;;;22.00;54.30;;;;;;4940526;29;20408;-80
2022/02/25 10:26:21;;;;;;;1.10;0.80;;;22.00;54.30;;;;;;4924475;29;20993;-80
2022/02/25 10:29:02;;;;;;;0.90;0.60;;;22.00;54.30;;;;;;4939102;29;20438;-79
2022/02/25 10:31:39;;;;;;;1.00;0.60;;;22.10;54.50;;;;;;4923097;29;20430;-80
2022/02/25 10:34:21;;;;;;;1.10;0.70;;;22.00;54.30;;;;;;4924063;29;20437;-80
2022/02/25 10:36:55;;;;;;;1.10;0.73;;;22.00;54.30;;;;;;4925029;29;20459;-80
2022/02/25 10:39:32;;;;;;;1.20;0.77;;;22.00;54.30;;;;;;4922771;29;20412;-80
2022/02/25 10:42:27;;;;;;;2.43;0.70;;;22.00;54.30;;;;;;4939321;29;20411;-79
2022/02/25 10:45:05;;;;;;;0.90;0.80;;;22.00;54.30;;;;;;4947135;28;20399;-80
2022/02/25 10:47:34;;;;;;;1.00;0.60;;;22.00;54.30;;;;;;5017302;28;20430;-79
2022/02/25 10:50:25;;;;;;;1.20;0.63;;;22.10;54.40;;;;;;5016583;28;20399;-80
2022/02/25 10:52:57;;;;;;;0.80;0.60;;;22.10;54.30;;;;;;4920268;29;20425;-79
2022/02/25 10:55:26;;;;;;;1.03;0.70;;;22.00;54.30;;;;;;4905680;29;20437;-80
2022/02/25 10:57:58;;;;;;;0.87;0.73;;;22.10;54.30;;;;;;4914102;29;20512;-80
2022/02/25 11:00:25;;;;;;;1.00;0.70;;;22.10;54.30;;;;;;4887119;29;20480;-79
2022/02/25 11:03:04;;;;;;;1.77;0.97;;;22.10;54.40;;;;;;4904915;29;20412;-79
2022/02/25 11:05:44;;;;;;;1.20;0.90;;;22.10;54.30;;;;;;4919340;29;20520;-79
2022/02/25 11:08:12;;;;;;;1.00;0.70;;;22.10;54.30;;;;;;4929793;28;20404;-79
2022/02/25 11:11:20;;;;;;;1.00;0.70;;;22.10;54.30;;;;;;4996968;28;20485;-80
2022/02/25 11:13:52;;;;;;;1.27;0.87;;;22.10;54.30;;;;;;4981185;28;20425;-79
2022/02/25 11:16:31;;;;;;;1.33;0.90;;;22.10;54.30;;;;;;4993228;28;20424;-79
2022/02/25 11:19:20;;;;;;;1.40;1.00;;;22.10;54.40;;;;;;4977618;29;20436;-79
2022/02/25 11:21:53;;;;;;;2.47;1.10;;;22.10;54.30;;;;;;4980240;28;20449;-79
2022/02/25 11:24:40;;;;;;;4.47;1.43;;;22.10;54.30;;;;;;4996820;28;20468;-79
2022/02/25 11:27:32;;;;;;;3.43;2.07;;;22.10;54.30;;;;;;4980529;28;20437;-79
2022/02/25 11:30:57;;;;;;;6.63;3.20;;;22.10;54.30;;;;;;5063419;28;20416;-79
2022/02/25 11:33:29;;;;;;;5.27;3.23;;;22.10;54.30;;;;;;5099337;28;20451;-79
2022/02/25 11:36:16;;;;;;;5.40;3.73;;;22.10;54.30;;;;;;5084026;28;20474;-79
2022/02/25 11:38:54;;;;;;;5.93;4.23;;;22.10;54.30;;;;;;5017061;28;20421;-80
2022/02/25 11:45:18;;;;;;;8.10;4.53;;;22.10;54.30;;;;;;4997621;28;20429;-79
2022/02/25 11:48:52;;;;;;;7.47;3.50;;;22.10;54.40;;;;;;4990324;28;20420;-79
2022/02/25 11:51:51;;;;;;;6.03;3.73;;;22.00;54.40;;;;;;4997790;28;20409;-79
2022/02/25 11:54:58;;;;;;;6.40;4.20;;;22.00;54.40;;;;;;4997208;28;20424;-81
2022/02/25 12:11:03;;;;;;;10.53;6.37;;;22.00;54.50;;;;;;4902184;29;20393;-80
2022/02/25 12:13:39;;;;;;;11.13;5.97;;;22.00;54.50;;;;;;4873487;29;20411;-80
2022/02/25 12:19:35;;;;;;;9.47;6.90;;;22.00;54.50;;;;;;4883217;29;20544;-79
2022/02/25 12:26:07;;;;;;;11.90;6.20;;;22.00;54.50;;;;;;4978317;29;20438;-80
2022/02/25 12:32:15;;;;;;;8.70;5.70;;;22.00;54.50;;;;;;5046684;28;20399;-81
2022/02/25 12:44:37;;;;;;;8.73;5.97;;;22.00;54.50;;;;;;4994777;28;20427;-80
2022/02/25 12:47:09;;;;;;;11.73;5.77;;;22.00;54.50;;;;;;4985500;28;20425;-79
2022/02/25 12:49:44;;;;;;;9.00;6.40;;;22.00;54.50;;;;;;4979133;28;20629;-79
2022/02/25 12:52:18;;;;;;;8.90;5.50;;;22.00;54.50;;;;;;4981190;28;20416;-79
2022/02/25 12:54:54;;;;;;;11.00;6.30;;;22.00;54.50;;;;;;4995408;28;20445;-79
2022/02/25 12:57:27;;;;;;;10.20;6.43;;;22.00;54.40;;;;;;4995632;28;20440;-79
2022/02/25 13:00:03;;;;;;;6.60;5.00;;;22.10;54.50;;;;;;4995952;28;20449;-80
2022/02/25 13:06:09;;;;;;;9.00;5.63;;;22.10;54.50;;;;;;5014963;28;20420;-79
2022/02/25 13:08:48;;;;;;;9.70;5.97;;;22.00;54.40;;;;;;5014774;28;20447;-80
2022/02/25 13:11:27;;;;;;;7.03;4.40;;;22.00;54.40;;;;;;5022634;28;20418;-78
2022/02/25 13:14:11;;;;;;;9.17;5.23;;;22.10;54.50;;;;;;5022433;28;20425;-78
2022/02/25 13:17:11;;;;;;;9.83;5.20;;;22.00;54.40;;;;;;5054803;28;20391;-78
2022/02/25 13:19:46;;;;;;;6.97;4.43;;;22.00;54.40;;;;;;5054004;28;20462;-78
2022/02/25 13:22:23;;;;;;;7.80;4.33;;;22.00;54.40;;;;;;5037193;28;20489;-79
2022/02/25 13:25:11;;;;;;;11.70;5.00;;;22.10;54.50;;;;;;5053982;28;20398;-79
2022/02/25 13:27:47;;;;;;;6.00;4.63;;;22.00;54.40;;;;;;5054533;28;20518;-78
2022/02/25 13:33:24;;;;;;;7.37;4.43;;;22.00;54.40;;;;;;5012079;28;20811;-79
2022/02/25 13:36:04;;;;;;;11.80;4.60;;;22.00;54.40;;;;;;5019263;28;20447;-79
2022/02/25 13:38:40;;;;;;;8.73;4.90;;;22.00;54.50;;;;;;5022019;28;20459;-79
2022/02/25 13:41:14;;;;;;;9.90;4.83;;;22.00;54.40;;;;;;5021837;28;20475;-79
2022/02/25 13:44:10;;;;;;;7.70;4.80;;;22.00;54.40;;;;;;5037879;28;20418;-79
2022/02/25 13:46:50;;;;;;;7.10;4.70;;;22.00;54.40;;;;;;5011643;28;20420;-79
2022/02/25 13:52:19;;;;;;;7.27;4.27;;;22.00;54.50;;;;;;5014511;28;20463;-79
2022/02/25 13:55:16;;;;;;;7.30;4.83;;;22.00;54.50;;;;;;4998435;28;20409;-79
2022/02/25 13:57:45;;;;;;;9.40;5.10;;;22.00;54.50;;;;;;5002565;28;20464;-79
2022/02/25 14:00:22;;;;;;;6.80;4.20;;;22.00;54.50;;;;;;5008429;28;20464;-79
2022/02/25 14:02:51;;;;;;;6.53;3.83;;;22.00;54.50;;;;;;5028073;28;20408;-79
2022/02/25 14:05:24;;;;;;;6.20;3.70;;;22.00;54.50;;;;;;5009085;28;20420;-79
2022/02/25 14:08:01;;;;;;;6.90;4.00;;;22.00;54.50;;;;;;4988118;28;20471;-79
2022/02/25 14:10:40;;;;;;;6.27;3.93;;;22.00;54.50;;;;;;5021213;28;20469;-79
2022/02/25 14:13:15;;;;;;;7.90;4.70;;;22.00;54.40;;;;;;5028622;28;20432;-81
2022/02/25 14:15:45;;;;;;;6.93;4.63;;;22.00;54.60;;;;;;5020312;28;20424;-82
2022/02/25 14:18:13;;;;;;;6.93;4.10;;;22.10;54.70;;;;;;5017156;28;20462;-82
2022/02/25 14:20:42;;;;;;;8.33;5.10;;;22.00;54.70;;;;;;5022726;28;20481;-82
2022/02/25 14:23:10;;;;;;;7.60;4.60;;;22.10;54.80;;;;;;5037828;28;20506;-82
2022/02/25 14:25:40;;;;;;;6.47;3.80;;;22.10;54.80;;;;;;5077760;28;20489;-82
2022/02/25 14:28:26;;;;;;;7.20;3.73;;;22.10;54.70;;;;;;5094975;28;20417;-82
2022/02/25 14:31:00;;;;;;;7.50;3.50;;;22.10;54.70;;;;;;5095927;28;20404;-81
2022/02/25 14:33:37;;;;;;;5.97;3.83;;;22.10;54.70;;;;;;5079953;28;20494;-81
2022/02/25 14:36:13;;;;;;;7.10;4.07;;;22.20;54.80;;;;;;5091703;28;20440;-81
2022/02/25 14:38:47;;;;;;;6.00;4.00;;;22.20;54.80;;;;;;5109615;28;20442;-82
2022/02/25 14:41:15;;;;;;;6.63;4.63;;;22.20;54.80;;;;;;5083297;28;20419;-82
2022/02/25 14:43:45;;;;;;;4.43;3.00;;;22.20;54.80;;;;;;5100254;28;20420;-82
2022/02/25 14:46:15;;;;;;;7.27;3.50;;;22.20;54.70;;;;;;5101149;28;20414;-81
2022/02/25 14:48:42;;;;;;;6.53;3.77;;;22.20;54.70;;;;;;5083429;28;20467;-81
2022/02/25 14:51:11;;;;;;;8.30;4.80;;;22.20;54.70;;;;;;5117394;28;20412;-81
2022/02/25 14:53:47;;;;;;;8.10;4.43;;;22.30;54.80;;;;;;5099610;28;20434;-80
2022/02/25 14:56:28;;;;;;;6.20;4.43;;;22.30;54.80;;;;;;5100906;28;20480;-79
2022/02/25 14:58:56;;;;;;;4.30;3.03;;;22.30;54.80;;;;;;5101580;28;20403;-79
2022/02/25 15:01:25;;;;;;;7.37;4.20;;;22.30;54.80;;;;;;5083913;28;20404;-79
2022/02/25 15:03:59;;;;;;;7.33;3.50;;;22.30;54.80;;;;;;5084371;28;20415;-79
2022/02/25 15:06:31;;;;;;;6.03;3.73;;;22.30;54.80;;;;;;5101126;28;20475;-79
2022/02/25 15:09:24;;;;;;;6.20;3.17;;;22.30;54.80;;;;;;5117260;28;20408;-79
2022/02/25 15:11:52;;;;;;;6.03;3.57;;;22.30;54.80;;;;;;5112977;28;20479;-79
2022/02/25 15:14:23;;;;;;;6.90;3.97;;;22.30;54.80;;;;;;5117719;28;20380;-80
2022/02/25 15:16:55;;;;;;;5.23;3.40;;;22.30;54.80;;;;;;5118058;28;20471;-80
2022/02/25 15:19:42;;;;;;;5.10;2.80;;;22.30;54.80;;;;;;5057602;28;20402;-80
2022/02/25 15:22:08;;;;;;;5.90;3.40;;;22.30;54.80;;;;;;5118090;28;20391;-79
2022/02/25 15:24:37;;;;;;;6.50;3.77;;;22.30;54.80;;;;;;5100161;28;20428;-80
2022/02/25 15:27:08;;;;;;;7.10;4.10;;;22.30;54.80;;;;;;5117716;28;20400;-80
2022/02/25 15:29:45;;;;;;;6.20;3.20;;;22.30;54.80;;;;;;5101124;28;20387;-80
2022/02/25 15:32:15;;;;;;;4.93;3.50;;;22.30;54.80;;;;;;5099430;28;20425;-79
2022/02/25 15:34:42;;;;;;;7.57;4.00;;;22.30;54.80;;;;;;5083922;28;20472;-80
2022/02/25 15:37:14;;;;;;;8.60;4.30;;;22.30;54.90;;;;;;5117558;28;20459;-80
2022/02/25 15:39:41;;;;;;;9.03;3.77;;;22.30;54.90;;;;;;5080167;28;20412;-79